Airfield :
LOGIN :

Register | Disclaimer

   EN    FR    IT 

 










Legend :    VFR   Marginal VFR   IFR   Intensive IFR   Very Intensive IFR
Visi :
Ceiling :
>= 8 km
>= 3000ft
5 to 8 km
1000 to 3000 ft
1500m to 5 km
500 to 1000 ft
800 to 1500m
200 to 500 ft
< 800m
< 200 ft
Symbols :   Thunderstorms  Fog  Heavy snow  Heavy precipitations  Wind > 20 kt
SIGMETs :     Misc.  Thunderstorms  Icing  Turbulence  Mountain Waves  Volcanic Ashes







- Airport Elevation : 1299 ft


EDTY - Adolf Würth

CURRENT METAR :
  • 240950Z 26010KT 220V310 9999 BKN035 BKN041 16/10 Q1019

EXPIRED METARs :
  • 240920Z 27008KT 9999 BKN033 BKN038 16/09 Q1019
  • 240850Z 26011KT 240V300 9999 FEW026 BKN030 15/09 Q1019
  • 240820Z 23011KT 9999 BKN026 BKN032 16/10 Q1019
  • 240750Z 24009KT 210V270 9999 FEW020 16/11 Q1019
  • 240720Z 23008KT 200V260 9999 FEW042 15/11 Q1019

TAF TAF EDTY
Valid from the 24 at 09:00 until the 24 at 18:00 UTC


240800Z 2409/2418 25010KT 9999 FEW035
BECMG 2417/2418 27005KT
No reported NOTAMs for that airfield.



MET'MAP, your aeronautical weather chart ! - Copyright ORBIFLY December 2007 - Disclaimer

ORBIFLY MET'MAP TEAM :

Programming & Development : Alexandra Zaïnal
Concept & Development : Baudouin d'Aumeries
Co-Development & Prog : Marc-Olivier Méhu
Technical & hardware support : Manuel Goepfert

Contact : metmap@orbifly.com




SOURCES & CREDITS :

   NOAA